Time;durP1;ratioP1;P1;durP2;ratioP2;P2;SDS_P1;SDS_P2;PMS_P1;PMS_P2;Temp;Humidity;BMP_temperature;BMP_pressure;BME280_temperature;BME280_humidity;BME280_pressure;Samples;Min_cycle;Max_cycle;Signal;HPM_P1;HPM_P2
2021/05/14 00:00:30;;;;;;;1.60;0.90;;;13.50;95.50;;;;;;5053061;28;20717;-64
2021/05/14 00:02:56;;;;;;;1.63;1.10;;;13.50;95.60;;;;;;5052906;28;20201;-63
2021/05/14 00:05:23;;;;;;;2.43;0.83;;;13.40;95.70;;;;;;5052416;28;20206;-62
2021/05/14 00:07:50;;;;;;;1.00;0.80;;;13.30;95.90;;;;;;5052004;28;20460;-62
2021/05/14 00:10:18;;;;;;;1.60;0.87;;;13.30;96.00;;;;;;5052614;28;20266;-63
2021/05/14 00:12:44;;;;;;;2.20;1.10;;;13.30;96.20;;;;;;5052368;28;20213;-63
2021/05/14 00:15:11;;;;;;;1.70;1.20;;;13.30;96.30;;;;;;5052462;28;20206;-63
2021/05/14 00:17:37;;;;;;;1.03;0.77;;;13.20;96.40;;;;;;5052673;28;20220;-62
2021/05/14 00:20:05;;;;;;;2.17;0.97;;;13.20;96.50;;;;;;5052407;28;20232;-63
2021/05/14 00:22:31;;;;;;;1.30;1.00;;;13.30;96.40;;;;;;5052293;28;20208;-63
2021/05/14 00:24:58;;;;;;;1.33;0.93;;;13.20;96.30;;;;;;5052130;28;20209;-64
2021/05/14 00:27:25;;;;;;;1.10;0.80;;;13.20;96.30;;;;;;5051890;28;20225;-64
2021/05/14 00:29:51;;;;;;;1.67;0.90;;;13.20;95.70;;;;;;5052573;28;20205;-62
2021/05/14 00:32:17;;;;;;;0.40;0.40;;;13.20;95.60;;;;;;5052141;28;20252;-62
2021/05/14 00:34:44;;;;;;;2.77;0.83;;;13.20;95.60;;;;;;5052141;28;20212;-64
2021/05/14 00:37:10;;;;;;;3.17;0.80;;;13.20;95.80;;;;;;5052219;28;20217;-64
2021/05/14 00:39:36;;;;;;;1.57;0.83;;;13.20;96.10;;;;;;5052523;28;20208;-64
2021/05/14 00:42:04;;;;;;;2.67;0.77;;;13.10;96.10;;;;;;5051965;28;20234;-64
2021/05/14 00:44:31;;;;;;;1.07;0.70;;;13.10;96.30;;;;;;5052266;28;20206;-63
2021/05/14 00:46:58;;;;;;;1.20;0.63;;;13.10;96.40;;;;;;5051837;28;20771;-62
2021/05/14 00:49:25;;;;;;;0.90;0.80;;;13.10;96.40;;;;;;5051879;28;20217;-64
2021/05/14 00:51:52;;;;;;;1.17;0.70;;;13.10;96.40;;;;;;5051901;28;20716;-64
2021/05/14 00:54:18;;;;;;;3.07;0.90;;;13.00;96.50;;;;;;5051801;28;20653;-64
2021/05/14 00:56:45;;;;;;;3.23;0.90;;;13.00;96.40;;;;;;5051976;28;20264;-64
2021/05/14 00:59:12;;;;;;;2.37;0.67;;;13.00;96.50;;;;;;5051923;28;20292;-64
2021/05/14 01:01:38;;;;;;;1.40;0.80;;;13.00;96.50;;;;;;5051580;28;20237;-63
2021/05/14 01:04:05;;;;;;;1.50;0.67;;;13.00;96.60;;;;;;5051637;28;20209;-64
2021/05/14 01:06:32;;;;;;;1.90;0.70;;;13.00;96.60;;;;;;5051528;28;20343;-64
2021/05/14 01:08:59;;;;;;;2.37;0.70;;;13.00;96.60;;;;;;5051240;28;20283;-63
2021/05/14 01:11:26;;;;;;;3.43;0.80;;;13.00;96.70;;;;;;5051649;28;20240;-64
2021/05/14 01:13:53;;;;;;;1.33;0.70;;;13.00;96.70;;;;;;5051207;28;20688;-63
2021/05/14 01:16:20;;;;;;;0.90;0.70;;;13.00;96.80;;;;;;5051140;28;20670;-64
2021/05/14 01:18:46;;;;;;;1.20;0.70;;;13.00;96.90;;;;;;5050391;28;20271;-63
2021/05/14 01:21:14;;;;;;;2.03;0.70;;;13.00;96.80;;;;;;5051138;28;20236;-64
2021/05/14 01:23:40;;;;;;;0.77;0.70;;;13.00;96.80;;;;;;5050919;28;20611;-64
2021/05/14 01:26:11;;;;;;;0.97;0.70;;;13.00;97.00;;;;;;5051100;28;20229;-62
2021/05/14 01:28:37;;;;;;;1.53;0.90;;;12.90;97.30;;;;;;5051103;28;20213;-64
2021/05/14 01:31:03;;;;;;;2.90;0.80;;;12.90;97.60;;;;;;5051245;28;20233;-64
2021/05/14 01:33:29;;;;;;;1.13;0.70;;;12.80;97.90;;;;;;5051150;28;20232;-64
2021/05/14 01:35:55;;;;;;;1.00;0.87;;;12.80;98.30;;;;;;5050965;28;20209;-64
2021/05/14 01:38:23;;;;;;;1.00;0.70;;;12.80;98.50;;;;;;5051157;28;20504;-64
2021/05/14 01:40:49;;;;;;;1.60;0.90;;;12.70;98.80;;;;;;5050723;28;20705;-64
2021/05/14 01:43:15;;;;;;;0.93;0.80;;;12.70;99.20;;;;;;5051025;28;20209;-64
2021/05/14 01:45:41;;;;;;;2.00;0.70;;;12.70;99.30;;;;;;5050790;28;20259;-64
2021/05/14 01:48:08;;;;;;;0.80;0.80;;;12.70;99.60;;;;;;5050908;28;20232;-64
2021/05/14 01:50:34;;;;;;;0.70;0.70;;;12.60;99.80;;;;;;5050956;28;20232;-64
2021/05/14 01:53:01;;;;;;;1.33;0.90;;;12.60;99.90;;;;;;5051294;28;20208;-62
2021/05/14 01:55:28;;;;;;;1.23;0.60;;;12.60;99.90;;;;;;5050902;28;20201;-63
2021/05/14 01:57:54;;;;;;;0.80;0.80;;;12.60;99.90;;;;;;5050607;28;20711;-64
2021/05/14 02:00:22;;;;;;;1.73;1.00;;;12.60;99.90;;;;;;5050672;28;20858;-64
2021/05/14 02:02:48;;;;;;;1.70;0.90;;;12.40;99.90;;;;;;5050740;28;20235;-64
2021/05/14 02:05:15;;;;;;;1.27;0.90;;;12.40;99.90;;;;;;5050460;28;20209;-64
2021/05/14 02:07:41;;;;;;;3.43;1.10;;;12.30;99.90;;;;;;5050463;28;20228;-63
2021/05/14 02:10:09;;;;;;;1.00;0.90;;;12.20;99.90;;;;;;5050671;28;20212;-64
2021/05/14 02:12:36;;;;;;;5.50;0.77;;;12.00;99.90;;;;;;5050658;28;20209;-62
2021/05/14 02:15:02;;;;;;;1.57;0.77;;;12.00;99.90;;;;;;5050519;28;20665;-63
2021/05/14 02:17:28;;;;;;;1.80;0.93;;;11.80;99.90;;;;;;5050524;28;20206;-64
2021/05/14 02:19:55;;;;;;;1.70;0.90;;;11.70;99.90;;;;;;5050356;28;20213;-64
2021/05/14 02:22:22;;;;;;;2.40;0.77;;;11.50;99.90;;;;;;5050531;28;20225;-64
2021/05/14 02:24:49;;;;;;;1.87;1.00;;;11.40;99.90;;;;;;5050265;28;20674;-63
2021/05/14 02:27:16;;;;;;;2.70;1.07;;;11.30;99.90;;;;;;5050334;28;20726;-63
2021/05/14 02:29:43;;;;;;;1.43;0.67;;;11.20;99.90;;;;;;5051515;28;20209;-63
2021/05/14 02:32:09;;;;;;;2.60;1.33;;;11.20;99.90;;;;;;5054353;28;20233;-63
2021/05/14 02:34:36;;;;;;;3.30;0.80;;;11.10;99.90;;;;;;5054117;28;20210;-63
2021/05/14 02:37:02;;;;;;;1.10;0.90;;;11.10;99.90;;;;;;5054290;28;20268;-63
2021/05/14 02:39:28;;;;;;;1.60;1.20;;;11.10;99.90;;;;;;5054130;28;20210;-63
2021/05/14 02:41:55;;;;;;;29.20;20.03;;;11.10;99.90;;;;;;5054220;28;20222;-63
2021/05/14 02:44:21;;;;;;;3.10;2.50;;;11.10;99.90;;;;;;5054291;28;20213;-63
2021/05/14 02:46:48;;;;;;;5.43;3.83;;;11.00;99.90;;;;;;5054259;28;20294;-63
2021/05/14 02:49:14;;;;;;;3.23;2.57;;;10.90;99.90;;;;;;5053902;28;20209;-63
2021/05/14 02:51:41;;;;;;;3.80;2.67;;;10.70;99.90;;;;;;5054066;28;20256;-63
2021/05/14 02:54:07;;;;;;;1.73;1.43;;;10.70;99.90;;;;;;5053921;28;20217;-63
2021/05/14 02:56:34;;;;;;;3.10;1.93;;;10.60;99.90;;;;;;5054064;28;20206;-63
2021/05/14 02:59:00;;;;;;;2.83;2.23;;;10.50;99.90;;;;;;5053830;28;20263;-63
2021/05/14 03:01:27;;;;;;;2.57;2.13;;;10.50;99.90;;;;;;5053585;28;20233;-63
2021/05/14 03:03:54;;;;;;;4.53;2.53;;;10.40;99.90;;;;;;5054024;28;20255;-63
2021/05/14 03:06:22;;;;;;;5.17;2.80;;;10.30;99.90;;;;;;5053750;28;20221;-63
2021/05/14 03:08:48;;;;;;;2.17;1.50;;;10.20;99.90;;;;;;5053635;28;20210;-63
2021/05/14 03:11:14;;;;;;;4.13;2.70;;;10.20;99.90;;;;;;5053579;28;20233;-63
2021/05/14 03:13:40;;;;;;;5.50;3.27;;;10.10;99.90;;;;;;5053590;28;20222;-63
2021/05/14 03:16:07;;;;;;;4.33;2.97;;;10.10;99.90;;;;;;5053664;28;20210;-63
2021/05/14 03:18:33;;;;;;;1.40;1.17;;;10.00;99.90;;;;;;5053752;28;20216;-63
2021/05/14 03:21:00;;;;;;;3.63;2.03;;;10.00;99.90;;;;;;5053442;28;20222;-63
2021/05/14 03:23:27;;;;;;;3.03;1.50;;;10.00;99.90;;;;;;5053419;28;20206;-62
2021/05/14 03:25:53;;;;;;;4.77;1.80;;;10.10;99.90;;;;;;5053381;28;20563;-63
2021/05/14 03:28:19;;;;;;;3.10;2.00;;;10.10;99.90;;;;;;5053240;28;20206;-63
2021/05/14 03:30:45;;;;;;;1.70;1.20;;;10.20;99.90;;;;;;5077301;22;20237;-61
2021/05/14 03:33:19;;;;;;;3.20;1.97;;;10.30;99.90;;;;;;5074994;28;20220;-62
2021/05/14 03:35:45;;;;;;;1.77;0.97;;;10.30;99.90;;;;;;5074290;28;20299;-62
2021/05/14 03:38:13;;;;;;;3.53;1.57;;;10.40;99.90;;;;;;5074264;28;20228;-62
2021/05/14 03:40:40;;;;;;;3.00;2.23;;;10.30;99.90;;;;;;5073311;28;20208;-62
2021/05/14 03:43:07;;;;;;;5.20;2.80;;;10.30;99.90;;;;;;5073818;28;20277;-63
2021/05/14 03:45:33;;;;;;;4.77;2.10;;;10.40;99.90;;;;;;5074348;28;20201;-62
2021/05/14 03:48:00;;;;;;;2.03;1.37;;;10.40;99.90;;;;;;5074247;28;20233;-62
2021/05/14 03:50:30;;;;;;;4.37;1.90;;;10.40;99.90;;;;;;5074372;28;20640;-62
2021/05/14 03:52:57;;;;;;;2.43;1.73;;;10.40;99.90;;;;;;5074505;28;20491;-62
2021/05/14 03:55:24;;;;;;;2.07;1.10;;;10.40;99.90;;;;;;5074324;28;20217;-62
2021/05/14 03:57:51;;;;;;;2.17;1.80;;;10.40;99.90;;;;;;5074480;28;20460;-61
2021/05/14 04:00:18;;;;;;;3.80;2.43;;;10.40;99.90;;;;;;5074992;28;20502;-64
2021/05/14 04:02:44;;;;;;;2.13;1.30;;;10.40;99.90;;;;;;5074098;28;20220;-62
2021/05/14 04:05:11;;;;;;;2.50;1.27;;;10.50;99.90;;;;;;5073946;28;20201;-61
2021/05/14 04:07:37;;;;;;;3.00;1.60;;;10.60;99.90;;;;;;5073584;28;20225;-63
2021/05/14 04:10:11;;;;;;;2.30;1.90;;;10.60;99.90;;;;;;5073464;28;20216;-62
2021/05/14 04:15:23;;;;;;;1.80;1.30;;;10.80;99.90;;;;;;5073742;28;20327;-62
2021/05/14 04:17:49;;;;;;;1.83;1.60;;;10.90;99.90;;;;;;5073690;28;20228;-64
2021/05/14 04:20:15;;;;;;;5.23;2.10;;;10.90;99.90;;;;;;5073334;28;20243;-62
2021/05/14 04:22:42;;;;;;;3.20;1.10;;;11.00;99.90;;;;;;5072862;28;20225;-62
2021/05/14 04:25:09;;;;;;;2.40;1.20;;;11.10;99.90;;;;;;5072550;28;20266;-61
2021/05/14 04:27:35;;;;;;;2.63;1.30;;;11.10;99.90;;;;;;5072636;28;20225;-62
2021/05/14 04:30:02;;;;;;;3.97;2.10;;;11.20;99.90;;;;;;5072906;28;20204;-62
2021/05/14 04:32:29;;;;;;;1.27;1.07;;;11.30;99.90;;;;;;5072643;28;20290;-61
2021/05/14 04:34:55;;;;;;;1.43;1.23;;;11.40;99.90;;;;;;5073245;28;20231;-63
2021/05/14 04:37:21;;;;;;;2.63;1.30;;;11.40;99.90;;;;;;5072852;28;20205;-62
2021/05/14 04:39:47;;;;;;;8.50;5.63;;;11.50;99.90;;;;;;5073150;28;20213;-62
2021/05/14 04:42:13;;;;;;;3.53;1.90;;;11.50;99.90;;;;;;5073383;28;20591;-62
2021/05/14 04:44:40;;;;;;;3.83;1.77;;;11.60;99.90;;;;;;5072231;28;20209;-63
2021/05/14 04:47:07;;;;;;;3.00;1.40;;;11.60;99.90;;;;;;5072520;28;20221;-64
2021/05/14 04:49:33;;;;;;;2.53;2.07;;;11.60;99.90;;;;;;5072730;28;20201;-62
2021/05/14 04:51:59;;;;;;;2.97;1.30;;;11.50;99.90;;;;;;5072390;28;20738;-61
2021/05/14 04:54:26;;;;;;;1.30;1.20;;;11.50;99.90;;;;;;5072056;28;20577;-61
2021/05/14 04:56:53;;;;;;;4.23;2.60;;;11.40;99.90;;;;;;5072292;28;20657;-63
2021/05/14 04:59:19;;;;;;;5.77;3.13;;;11.20;99.90;;;;;;5072443;28;20343;-62
2021/05/14 05:01:46;;;;;;;22.73;13.60;;;11.20;99.90;;;;;;5072400;28;20221;-62
2021/05/14 05:04:14;;;;;;;4.20;2.20;;;11.20;99.90;;;;;;5072157;28;20220;-64
2021/05/14 05:06:41;;;;;;;7.40;4.87;;;11.20;99.90;;;;;;5072725;28;20734;-62
2021/05/14 05:09:07;;;;;;;55.57;37.60;;;11.10;99.90;;;;;;5072951;28;20300;-63
2021/05/14 05:11:33;;;;;;;15.63;10.97;;;11.20;99.90;;;;;;5072197;28;20716;-62
2021/05/14 05:13:59;;;;;;;12.53;8.10;;;11.10;99.90;;;;;;5072292;28;20205;-62
2021/05/14 05:16:26;;;;;;;5.00;2.80;;;11.10;99.90;;;;;;5072251;28;20212;-62
2021/05/14 05:18:52;;;;;;;2.77;1.40;;;11.20;99.90;;;;;;5072404;28;20205;-62
2021/05/14 05:21:19;;;;;;;2.20;1.20;;;11.30;99.90;;;;;;5072519;28;20232;-62
2021/05/14 05:23:45;;;;;;;3.23;2.00;;;11.40;99.90;;;;;;5072642;28;20209;-62
2021/05/14 05:26:11;;;;;;;2.37;1.43;;;11.60;99.90;;;;;;5072734;28;20338;-64
2021/05/14 05:28:37;;;;;;;4.93;2.30;;;12.00;99.90;;;;;;5072568;28;20213;-63
2021/05/14 05:31:04;;;;;;;1.43;1.30;;;14.40;99.90;;;;;;5072686;28;20738;-63
2021/05/14 05:33:30;;;;;;;2.93;1.30;;;17.10;99.90;;;;;;5074807;28;20209;-62
2021/05/14 05:35:56;;;;;;;1.90;1.07;;;18.30;95.00;;;;;;5074887;28;20209;-63
2021/05/14 05:38:24;;;;;;;3.00;1.13;;;18.50;92.60;;;;;;5072746;28;20201;-64
2021/05/14 05:40:51;;;;;;;1.38;1.15;;;19.50;90.80;;;;;;5071997;28;20201;-62
2021/05/14 05:43:18;;;;;;;2.60;1.00;;;21.60;84.50;;;;;;5072133;28;20335;-63
2021/05/14 05:45:45;;;;;;;2.60;1.20;;;23.80;75.40;;;;;;5071979;28;20211;-63
2021/05/14 05:48:11;;;;;;;5.05;1.20;;;26.00;65.90;;;;;;5071310;28;20224;-64
2021/05/14 05:50:38;;;;;;;2.25;0.90;;;27.60;58.80;;;;;;5071802;28;20219;-64
2021/05/14 05:53:04;;;;;;;1.65;0.80;;;29.00;54.10;;;;;;5071556;28;20201;-64
2021/05/14 05:55:31;;;;;;;3.05;1.55;;;30.20;50.50;;;;;;5071561;28;20207;-64
2021/05/14 05:58:04;;;;;;;1.30;0.73;;;31.10;47.60;;;;;;5071143;28;20584;-63
2021/05/14 06:00:30;;;;;;;0.80;0.60;;;32.00;45.40;;;;;;5071343;28;20205;-63
2021/05/14 06:02:57;;;;;;;1.85;0.90;;;32.50;42.80;;;;;;5071171;28;20236;-66
2021/05/14 06:05:24;;;;;;;1.27;0.70;;;33.00;40.90;;;;;;5073669;28;20203;-64
2021/05/14 06:07:50;;;;;;;2.47;0.55;;;33.40;41.10;;;;;;5075620;28;20228;-63
2021/05/14 06:10:16;;;;;;;5.45;0.85;;;33.70;39.70;;;;;;5075901;28;20204;-63
2021/05/14 06:12:43;;;;;;;1.50;0.63;;;34.10;39.50;;;;;;5075788;28;20286;-63
2021/05/14 06:15:10;;;;;;;4.60;0.80;;;34.60;37.80;;;;;;5076576;28;20680;-67
2021/05/14 06:17:39;;;;;;;1.60;0.70;;;35.20;37.10;;;;;;5075926;28;20205;-64
2021/05/14 06:20:07;;;;;;;1.92;0.93;;;35.70;36.10;;;;;;5076052;28;20216;-66
2021/05/14 06:22:33;;;;;;;1.60;0.57;;;35.90;35.70;;;;;;5075077;28;20311;-64
2021/05/14 06:25:00;;;;;;;1.10;0.75;;;35.70;35.90;;;;;;5075495;28;20201;-64
2021/05/14 06:27:26;;;;;;;3.25;1.00;;;35.70;35.30;;;;;;5074827;28;20270;-63
2021/05/14 06:29:53;;;;;;;1.40;0.85;;;35.40;36.10;;;;;;5074690;28;20274;-65
2021/05/14 06:32:19;;;;;;;1.45;0.90;;;34.90;36.10;;;;;;5074959;28;20233;-63
2021/05/14 06:34:46;;;;;;;2.35;0.80;;;34.10;36.80;;;;;;5074857;28;20208;-63
2021/05/14 06:37:12;;;;;;;1.27;0.70;;;33.00;37.60;;;;;;5075019;28;20197;-63
2021/05/14 06:39:38;;;;;;;1.35;0.90;;;32.20;38.60;;;;;;5074673;28;20209;-63
2021/05/14 06:42:04;;;;;;;1.70;0.80;;;31.60;39.70;;;;;;5074709;28;20285;-63
2021/05/14 06:44:30;;;;;;;2.15;0.70;;;31.30;40.00;;;;;;5074532;28;20254;-63
2021/05/14 06:46:58;;;;;;;1.35;0.70;;;30.80;40.30;;;;;;5074817;28;20220;-65
2021/05/14 06:49:24;;;;;;;1.80;0.68;;;30.10;41.50;;;;;;5074459;28;20699;-65
2021/05/14 06:51:50;;;;;;;1.15;0.68;;;30.40;41.30;;;;;;5073898;28;20224;-64
2021/05/14 06:54:17;;;;;;;1.92;0.70;;;31.90;40.20;;;;;;5074139;28;20272;-62
2021/05/14 06:56:43;;;;;;;1.85;0.90;;;33.50;38.20;;;;;;5073815;28;20672;-62
2021/05/14 06:59:09;;;;;;;1.20;0.77;;;34.20;37.20;;;;;;5073723;28;20205;-62
2021/05/14 07:01:36;;;;;;;1.30;0.68;;;34.50;36.50;;;;;;5073747;28;20716;-65
2021/05/14 07:04:04;;;;;;;1.98;0.95;;;35.30;35.80;;;;;;5073704;28;20205;-65
2021/05/14 07:06:30;;;;;;;2.05;1.10;;;36.20;34.80;;;;;;5073720;28;20580;-62
2021/05/14 07:08:56;;;;;;;0.73;0.57;;;37.00;34.40;;;;;;5073780;28;20266;-62
2021/05/14 07:11:22;;;;;;;3.13;0.63;;;37.30;33.20;;;;;;5073807;28;20557;-62
2021/05/14 07:13:48;;;;;;;1.27;0.70;;;38.00;32.80;;;;;;5073943;28;20639;-65
2021/05/14 07:16:15;;;;;;;1.90;0.75;;;38.10;32.10;;;;;;5072583;28;20676;-66
2021/05/14 07:18:42;;;;;;;2.05;0.60;;;37.10;32.80;;;;;;5073500;28;20211;-64
2021/05/14 07:21:09;;;;;;;1.88;0.70;;;36.00;33.90;;;;;;5073964;28;20239;-63
2021/05/14 07:23:35;;;;;;;1.17;0.70;;;34.70;35.40;;;;;;5073363;28;20722;-66
2021/05/14 07:26:01;;;;;;;1.45;0.80;;;34.60;35.40;;;;;;5073598;28;20205;-64
2021/05/14 07:28:28;;;;;;;1.40;0.65;;;35.50;34.60;;;;;;5073361;28;20232;-63
2021/05/14 07:30:54;;;;;;;3.05;0.82;;;36.70;33.50;;;;;;5073364;28;20882;-62
2021/05/14 07:33:20;;;;;;;1.90;0.70;;;37.00;33.40;;;;;;5073585;28;20209;-63
2021/05/14 07:35:47;;;;;;;2.40;0.73;;;37.20;32.80;;;;;;5073373;28;20201;-63
2021/05/14 07:38:14;;;;;;;1.83;1.02;;;37.60;32.60;;;;;;5073011;28;20208;-65
2021/05/14 07:40:41;;;;;;;1.23;0.80;;;38.10;32.20;;;;;;5073271;28;20251;-64
2021/05/14 07:43:07;;;;;;;1.15;0.55;;;38.70;31.00;;;;;;5073384;28;20208;-63
2021/05/14 07:45:34;;;;;;;3.28;0.75;;;38.00;31.10;;;;;;5073280;28;20208;-63
2021/05/14 07:48:00;;;;;;;0.70;0.55;;;36.20;33.00;;;;;;5072987;28;20225;-65
2021/05/14 07:50:27;;;;;;;2.33;0.57;;;35.70;33.80;;;;;;5073255;28;20685;-64
2021/05/14 07:52:53;;;;;;;0.40;0.40;;;36.00;33.50;;;;;;5073029;28;20742;-63
2021/05/14 07:55:21;;;;;;;0.77;0.40;;;36.20;33.00;;;;;;5072854;28;20209;-63
2021/05/14 07:57:47;;;;;;;0.50;0.40;;;36.20;33.30;;;;;;5073068;28;20262;-63
2021/05/14 08:00:14;;;;;;;1.35;0.60;;;36.10;33.00;;;;;;5073244;28;20200;-63
2021/05/14 08:02:40;;;;;;;0.85;0.55;;;36.70;32.00;;;;;;5073238;28;20286;-63
2021/05/14 08:05:07;;;;;;;1.02;0.30;;;36.90;32.70;;;;;;5072978;28;20211;-63
2021/05/14 08:07:33;;;;;;;0.28;0.20;;;36.30;32.30;;;;;;5072800;28;20225;-66
2021/05/14 08:10:00;;;;;;;0.40;0.15;;;35.10;32.60;;;;;;5072918;28;20204;-63
2021/05/14 08:12:27;;;;;;;0.45;0.20;;;33.00;35.20;;;;;;5072838;28;20275;-63
2021/05/14 08:14:55;;;;;;;0.88;0.30;;;31.20;38.00;;;;;;5072506;28;20215;-65
2021/05/14 08:17:21;;;;;;;3.55;0.50;;;30.30;38.60;;;;;;5072595;28;20234;-66
2021/05/14 08:19:48;;;;;;;0.77;0.70;;;30.70;38.90;;;;;;5073145;28;20403;-66
2021/05/14 08:22:14;;;;;;;0.77;0.35;;;31.80;37.30;;;;;;5072561;28;20726;-64
2021/05/14 08:24:40;;;;;;;0.88;0.47;;;31.80;36.90;;;;;;5072514;28;20205;-63
2021/05/14 08:27:07;;;;;;;0.80;0.35;;;31.70;37.20;;;;;;5072282;28;20232;-63
2021/05/14 08:29:35;;;;;;;1.02;0.50;;;31.40;37.50;;;;;;5072366;28;20209;-63
2021/05/14 08:32:01;;;;;;;2.90;0.68;;;30.30;38.80;;;;;;5072154;28;20244;-62
2021/05/14 08:34:27;;;;;;;1.52;1.10;;;29.50;40.10;;;;;;5072147;28;20352;-62
2021/05/14 08:36:53;;;;;;;0.50;0.40;;;29.00;41.20;;;;;;5072482;28;20262;-61
2021/05/14 08:39:19;;;;;;;1.42;0.52;;;28.30;41.60;;;;;;5072316;28;20205;-61
2021/05/14 08:41:46;;;;;;;1.13;0.70;;;27.50;42.80;;;;;;5072212;28;20604;-62
2021/05/14 08:44:12;;;;;;;2.85;1.80;;;26.60;44.50;;;;;;5071952;28;20216;-61
2021/05/14 08:46:40;;;;;;;2.08;0.60;;;26.10;45.50;;;;;;5071905;28;20258;-64
2021/05/14 08:49:08;;;;;;;1.88;0.70;;;25.60;46.50;;;;;;5072141;28;20215;-65
2021/05/14 08:51:34;;;;;;;1.30;0.80;;;25.20;47.50;;;;;;5071891;28;20220;-64
2021/05/14 08:54:02;;;;;;;1.58;0.95;;;24.80;48.80;;;;;;5072089;28;20593;-61
2021/05/14 08:56:31;;;;;;;1.48;0.80;;;24.30;49.50;;;;;;5072479;28;20239;-61
2021/05/14 08:58:57;;;;;;;1.70;0.80;;;23.90;50.50;;;;;;5071989;28;20205;-61
2021/05/14 09:01:25;;;;;;;1.38;0.65;;;23.40;51.80;;;;;;5071888;28;20504;-62
2021/05/14 09:04:03;;;;;;;1.40;0.60;;;23.10;52.30;;;;;;5071394;28;20209;-62
2021/05/14 09:06:34;;;;;;;0.40;0.40;;;22.80;52.60;;;;;;5072348;28;20278;-62
2021/05/14 09:09:02;;;;;;;0.70;0.50;;;22.70;51.70;;;;;;5072033;28;20209;-63
2021/05/14 09:11:33;;;;;;;2.53;0.70;;;22.80;51.20;;;;;;5071223;28;20239;-65
2021/05/14 09:14:00;;;;;;;2.92;1.05;;;23.10;50.50;;;;;;5071269;28;20672;-63
2021/05/14 09:16:41;;;;;;;0.55;0.40;;;23.40;49.50;;;;;;5071068;28;20213;-61
2021/05/14 09:19:09;;;;;;;1.35;0.60;;;23.70;49.50;;;;;;5071457;28;20222;-62
2021/05/14 09:21:35;;;;;;;2.72;0.80;;;23.70;50.20;;;;;;5071341;28;20646;-62
2021/05/14 09:24:02;;;;;;;3.60;0.50;;;23.40;51.90;;;;;;5071237;28;20818;-62
2021/05/14 09:26:30;;;;;;;2.05;1.25;;;23.10;52.00;;;;;;5070915;28;20209;-61
2021/05/14 09:28:57;;;;;;;1.88;1.00;;;22.90;51.90;;;;;;5071068;28;20201;-62
2021/05/14 09:31:23;;;;;;;2.53;0.63;;;22.80;52.30;;;;;;5084985;22;20241;-65
2021/05/14 09:33:51;;;;;;;2.28;1.70;;;22.70;52.50;;;;;;5071312;28;20273;-60
2021/05/14 09:36:21;;;;;;;0.80;0.47;;;22.80;51.20;;;;;;5071364;28;20205;-62
2021/05/14 09:38:50;;;;;;;2.72;0.45;;;22.80;51.70;;;;;;5070751;28;20209;-66
2021/05/14 09:41:28;;;;;;;1.05;0.40;;;22.70;51.70;;;;;;5070654;28;20236;-63
2021/05/14 09:44:05;;;;;;;0.60;0.30;;;22.50;50.80;;;;;;5071136;28;20204;-63
2021/05/14 09:46:35;;;;;;;1.15;0.47;;;22.50;51.20;;;;;;5071175;28;20213;-64
2021/05/14 09:49:03;;;;;;;2.63;1.80;;;22.50;51.30;;;;;;5071065;28;20220;-63
2021/05/14 09:51:32;;;;;;;1.08;0.52;;;22.50;51.40;;;;;;5070913;28;20224;-64
2021/05/14 09:54:22;;;;;;;0.95;0.57;;;22.50;50.80;;;;;;5070833;28;20208;-65
2021/05/14 09:59:53;;;;;;;1.50;0.60;;;22.80;51.20;;;;;;5068652;28;20675;-66
2021/05/14 10:02:22;;;;;;;3.47;0.75;;;23.00;50.90;;;;;;5053238;28;20225;-67
2021/05/14 10:04:49;;;;;;;5.35;1.38;;;23.00;50.90;;;;;;5051827;28;20653;-67
2021/05/14 10:07:17;;;;;;;1.90;1.08;;;22.90;51.60;;;;;;5051433;28;20294;-65
2021/05/14 10:09:46;;;;;;;2.72;0.82;;;22.90;51.40;;;;;;5051616;28;20292;-67
2021/05/14 10:12:14;;;;;;;1.55;0.50;;;22.90;50.70;;;;;;5051079;28;20271;-68
2021/05/14 10:14:42;;;;;;;0.85;0.40;;;23.00;50.40;;;;;;5050743;28;20220;-67
2021/05/14 10:17:12;;;;;;;2.03;0.50;;;23.10;50.70;;;;;;5051170;28;20197;-69
2021/05/14 10:19:40;;;;;;;1.73;0.65;;;23.30;49.40;;;;;;5052268;28;20216;-69
2021/05/14 10:22:07;;;;;;;2.05;1.30;;;23.50;49.30;;;;;;5051893;28;20225;-68
2021/05/14 10:24:42;;;;;;;1.55;0.75;;;23.70;49.50;;;;;;5055153;28;20630;-65
2021/05/14 10:27:16;;;;;;;3.92;2.30;;;23.70;50.80;;;;;;5058702;28;20315;-67
2021/05/14 10:29:44;;;;;;;0.63;0.57;;;23.60;52.80;;;;;;5055389;28;20558;-68
2021/05/14 10:32:10;;;;;;;1.42;0.38;;;23.50;53.50;;;;;;5052477;28;20237;-68
2021/05/14 10:34:37;;;;;;;1.38;0.75;;;23.50;51.50;;;;;;5054332;28;20220;-66
2021/05/14 10:37:03;;;;;;;0.65;0.20;;;23.50;51.40;;;;;;5053716;28;20206;-68
2021/05/14 10:39:35;;;;;;;1.55;0.30;;;23.40;50.40;;;;;;5053485;28;20236;-66
2021/05/14 10:42:06;;;;;;;0.63;0.50;;;23.40;50.20;;;;;;5052490;28;20313;-66
2021/05/14 10:44:43;;;;;;;1.15;0.50;;;23.50;50.80;;;;;;5051363;28;20206;-64
2021/05/14 10:47:46;;;;;;;1.98;0.63;;;23.50;50.50;;;;;;5051448;28;20312;-63
2021/05/14 10:50:34;;;;;;;0.70;0.50;;;23.70;50.50;;;;;;5050923;28;20216;-64
2021/05/14 10:53:27;;;;;;;2.35;0.50;;;24.00;50.00;;;;;;5054403;28;20230;-66
2021/05/14 10:55:55;;;;;;;1.95;0.50;;;24.30;48.90;;;;;;5050565;28;20265;-65
2021/05/14 10:58:44;;;;;;;1.65;0.75;;;24.40;48.40;;;;;;5054122;28;20213;-67
2021/05/14 11:01:34;;;;;;;0.90;0.60;;;24.40;48.70;;;;;;5054005;28;20658;-67
2021/05/14 11:04:02;;;;;;;1.98;0.40;;;24.40;48.30;;;;;;5054462;28;20202;-67
2021/05/14 11:06:40;;;;;;;3.20;0.60;;;24.50;48.10;;;;;;5053753;28;20646;-67
2021/05/14 11:09:07;;;;;;;0.52;0.38;;;24.60;48.20;;;;;;5054001;28;20619;-66
2021/05/14 11:11:34;;;;;;;2.20;0.50;;;24.80;47.50;;;;;;5054091;28;20226;-68
2021/05/14 11:14:19;;;;;;;0.65;0.30;;;24.80;47.50;;;;;;5054086;28;20201;-66
2021/05/14 11:16:46;;;;;;;15.10;11.93;;;24.90;47.10;;;;;;5054484;28;20548;-66
2021/05/14 11:19:18;;;;;;;0.70;0.40;;;24.70;47.90;;;;;;5054486;28;20209;-66
2021/05/14 11:22:03;;;;;;;1.83;1.00;;;24.40;47.20;;;;;;5053538;28;20240;-66
2021/05/14 11:24:35;;;;;;;1.13;0.70;;;23.90;48.20;;;;;;5053428;28;20239;-67
2021/05/14 11:27:06;;;;;;;3.30;1.35;;;23.40;49.40;;;;;;5053555;28;20232;-65
2021/05/14 11:29:35;;;;;;;3.30;2.25;;;23.20;50.40;;;;;;5052979;28;20201;-66
2021/05/14 11:32:36;;;;;;;2.22;1.30;;;23.10;53.70;;;;;;5053698;28;20233;-67
2021/05/14 11:35:12;;;;;;;1.50;0.82;;;23.00;56.20;;;;;;5053175;28;20239;-67
2021/05/14 11:37:41;;;;;;;1.35;0.57;;;22.70;62.70;;;;;;5053290;28;20205;-66
2021/05/14 11:40:13;;;;;;;1.70;0.93;;;22.40;63.00;;;;;;5053599;28;20206;-68
2021/05/14 11:42:45;;;;;;;1.17;0.57;;;22.20;64.40;;;;;;5053689;28;20817;-68
2021/05/14 11:45:15;;;;;;;1.38;0.60;;;21.80;65.50;;;;;;5053166;28;20210;-67
2021/05/14 11:47:47;;;;;;;1.00;0.65;;;21.60;65.10;;;;;;5052852;28;20218;-67
2021/05/14 11:50:23;;;;;;;1.17;0.60;;;21.30;66.80;;;;;;5052940;28;20502;-68
2021/05/14 11:52:50;;;;;;;2.50;0.50;;;21.10;67.10;;;;;;5052828;28;20294;-67
2021/05/14 11:55:17;;;;;;;2.10;0.52;;;20.80;65.70;;;;;;5053058;28;20219;-67
2021/05/14 11:57:47;;;;;;;1.88;0.90;;;20.50;69.30;;;;;;5052782;28;20201;-68
2021/05/14 12:00:15;;;;;;;2.22;0.60;;;20.40;72.70;;;;;;5053063;28;20229;-68
2021/05/14 12:02:44;;;;;;;2.00;0.80;;;20.30;72.20;;;;;;5052039;28;20221;-67
2021/05/14 12:05:12;;;;;;;0.90;0.50;;;20.30;74.60;;;;;;5052765;28;20577;-65
2021/05/14 12:07:40;;;;;;;1.98;0.30;;;20.40;69.90;;;;;;5053161;28;20259;-66
2021/05/14 12:10:09;;;;;;;1.38;0.50;;;20.50;68.80;;;;;;5053136;28;20240;-67
2021/05/14 12:12:37;;;;;;;0.80;0.40;;;20.60;65.60;;;;;;5053471;28;20610;-69
2021/05/14 12:15:19;;;;;;;1.98;0.60;;;20.50;65.10;;;;;;5053757;28;20210;-69
2021/05/14 12:17:47;;;;;;;0.88;0.30;;;20.80;62.20;;;;;;5053528;28;20207;-68
2021/05/14 12:20:32;;;;;;;1.13;0.50;;;21.10;60.10;;;;;;5054214;28;20210;-69
2021/05/14 12:23:01;;;;;;;1.33;0.40;;;21.30;63.90;;;;;;5053441;28;20589;-67
2021/05/14 12:25:29;;;;;;;1.45;0.52;;;21.70;63.60;;;;;;5052363;28;20208;-68
2021/05/14 12:27:57;;;;;;;4.50;1.30;;;22.00;68.90;;;;;;5052435;28;20218;-68
2021/05/14 12:30:38;;;;;;;1.80;0.90;;;22.30;65.90;;;;;;5052301;28;20298;-68
2021/05/14 12:33:08;;;;;;;1.77;0.90;;;22.50;63.10;;;;;;5052672;28;20233;-69
2021/05/14 12:35:34;;;;;;;2.03;0.90;;;22.60;59.50;;;;;;5052183;28;20206;-67
2021/05/14 12:38:01;;;;;;;0.85;0.40;;;22.60;58.50;;;;;;5052178;28;20484;-68
2021/05/14 12:40:34;;;;;;;1.02;0.30;;;23.00;58.00;;;;;;5052148;28;20205;-65
2021/05/14 12:43:05;;;;;;;0.60;0.32;;;23.40;53.70;;;;;;5051960;28;20229;-68
2021/05/14 12:45:35;;;;;;;0.98;0.30;;;23.60;52.40;;;;;;5051933;28;20681;-66
2021/05/14 12:48:01;;;;;;;1.65;0.30;;;23.80;52.10;;;;;;5051848;28;20221;-66
2021/05/14 12:50:28;;;;;;;2.10;0.35;;;23.70;52.50;;;;;;5051783;28;20210;-68
2021/05/14 12:52:54;;;;;;;2.47;0.63;;;23.90;55.60;;;;;;5051660;28;20225;-67
2021/05/14 12:55:21;;;;;;;1.88;0.63;;;23.90;54.10;;;;;;5051430;28;20557;-68